createdAt,value
2023-05-21T00:03:46.908Z,9.45
2023-05-21T00:07:53.300Z,9.50
2023-05-21T00:11:57.461Z,9.65
2023-05-21T00:16:00.420Z,9.90
2023-05-21T00:20:06.225Z,10.60
2023-05-21T00:24:09.406Z,10.25
2023-05-21T00:28:13.684Z,9.95
2023-05-21T00:32:16.515Z,10.00
2023-05-21T00:36:23.711Z,10.23
2023-05-21T00:40:26.724Z,10.45
2023-05-21T00:44:34.499Z,10.23
2023-05-21T00:48:38.086Z,11.30
2023-05-21T00:52:42.556Z,10.40
2023-05-21T00:56:45.734Z,10.35
2023-05-21T01:00:50.125Z,9.60
2023-05-21T01:04:55.911Z,9.98
2023-05-21T01:08:59.566Z,10.27
2023-05-21T01:13:02.956Z,10.07
2023-05-21T01:17:10.281Z,11.50
2023-05-21T01:21:13.648Z,11.30
2023-05-21T01:25:18.321Z,9.95
2023-05-21T01:29:21.257Z,10.38
2023-05-21T01:33:28.264Z,9.90
2023-05-21T01:37:36.001Z,10.15
2023-05-21T01:41:44.771Z,10.60
2023-05-21T01:45:48.859Z,9.90
2023-05-21T01:49:52.717Z,9.90
2023-05-21T01:53:55.736Z,9.57
2023-05-21T01:58:02.533Z,9.82
2023-05-21T02:02:06.507Z,10.00
2023-05-21T02:06:10.592Z,9.25
2023-05-21T02:10:13.969Z,9.35
2023-05-21T02:14:18.256Z,9.70
2023-05-21T02:18:21.468Z,9.88
2023-05-21T02:22:24.448Z,9.18
2023-05-21T02:26:27.384Z,8.80
2023-05-21T02:30:31.680Z,8.90
2023-05-21T02:34:36.535Z,9.43
2023-05-21T02:38:40.607Z,9.07
2023-05-21T02:42:43.449Z,8.77
2023-05-21T02:46:52.395Z,9.68
2023-05-21T02:50:55.527Z,9.93
2023-05-21T02:54:58.372Z,8.70
2023-05-21T02:59:01.214Z,8.90
2023-05-21T03:03:05.709Z,8.93
2023-05-21T03:07:10.116Z,8.85
2023-05-21T03:11:13.015Z,9.38
2023-05-21T03:15:15.958Z,9.23
2023-05-21T03:19:21.079Z,9.23
2023-05-21T03:23:24.039Z,9.15
2023-05-21T03:27:27.112Z,9.20
2023-05-21T03:31:30.959Z,9.27
2023-05-21T03:35:45.048Z,8.63
2023-05-21T03:39:48.075Z,8.75
2023-05-21T03:43:50.966Z,8.60
2023-05-21T03:47:56.226Z,8.48
2023-05-21T03:52:00.569Z,8.32
2023-05-21T03:56:04.051Z,7.93
2023-05-21T04:00:10.052Z,8.35
2023-05-21T04:04:18.740Z,8.45
2023-05-21T04:08:23.054Z,8.27
2023-05-21T04:12:25.931Z,8.32
2023-05-21T04:16:28.871Z,8.02
2023-05-21T04:20:31.725Z,8.65
2023-05-21T04:24:38.146Z,8.23
2023-05-21T04:28:54.064Z,7.40
2023-05-21T04:32:57.914Z,7.55
2023-05-21T04:37:00.945Z,7.28
2023-05-21T04:41:06.909Z,8.27
2023-05-21T04:45:11.343Z,6.82
2023-05-21T04:53:19.630Z,7.43
2023-05-21T04:57:24.577Z,6.75
2023-05-21T05:01:29.407Z,6.80
2023-05-21T05:05:32.576Z,6.90
2023-05-21T05:09:35.547Z,6.80
2023-05-21T05:13:41.505Z,7.05
2023-05-21T05:17:45.287Z,7.10
2023-05-21T05:21:49.414Z,6.47
2023-05-21T05:25:52.608Z,6.70
2023-05-21T05:29:56.856Z,7.07
2023-05-21T05:33:59.742Z,6.60
2023-05-21T05:38:02.669Z,6.95
2023-05-21T05:42:06.250Z,6.40
2023-05-21T05:46:10.978Z,6.88
2023-05-21T05:50:13.861Z,6.35
2023-05-21T05:54:17.260Z,5.97
2023-05-21T05:58:20.150Z,6.10
2023-05-21T06:02:40.968Z,5.63
2023-05-21T06:06:45.234Z,6.80
2023-05-21T06:10:48.083Z,5.90
2023-05-21T06:14:51.364Z,6.78
2023-05-21T06:18:55.711Z,6.10
2023-05-21T06:22:58.530Z,5.90
2023-05-21T06:27:02.061Z,6.20
2023-05-21T06:31:05.274Z,6.07
2023-05-21T06:35:11.664Z,6.25
2023-05-21T06:39:15.064Z,6.05
2023-05-21T06:43:18.096Z,5.90
2023-05-21T06:47:39.352Z,5.93
2023-05-21T06:51:43.690Z,6.00
2023-05-21T06:59:57.051Z,5.63
2023-05-21T07:04:00.154Z,5.78
2023-05-21T07:08:04.375Z,6.18
2023-05-21T07:12:08.017Z,5.95
2023-05-21T07:16:11.148Z,5.38
2023-05-21T07:20:15.921Z,5.18
2023-05-21T07:24:27.420Z,5.50
2023-05-21T07:28:30.778Z,5.80
2023-05-21T07:32:33.669Z,5.18
2023-05-21T07:36:36.996Z,5.53
2023-05-21T07:40:41.370Z,5.63
2023-05-21T07:44:44.329Z,5.38
2023-05-21T07:48:48.356Z,5.35
2023-05-21T07:52:51.261Z,5.32
2023-05-21T07:56:57.166Z,5.25
2023-05-21T08:01:22.611Z,5.32
2023-05-21T08:05:25.675Z,4.75
2023-05-21T08:09:28.610Z,4.43
2023-05-21T08:13:32.939Z,4.70
2023-05-21T08:17:36.064Z,5.03
2023-05-21T08:21:39.021Z,6.03
2023-05-21T08:25:42.064Z,4.70
2023-05-21T08:29:47.685Z,4.63
2023-05-21T08:33:54.148Z,5.38
2023-05-21T08:38:10.519Z,4.82
2023-05-21T08:42:37.305Z,5.00
2023-05-21T08:46:45.693Z,4.70
2023-05-21T08:50:48.983Z,5.05
2023-05-21T08:54:58.025Z,5.00
2023-05-21T08:59:02.672Z,5.65
2023-05-21T09:03:13.768Z,5.03
2023-05-21T09:07:20.614Z,4.50
2023-05-21T09:11:43.736Z,4.93
2023-05-21T09:15:47.605Z,4.80
2023-05-21T09:20:12.361Z,5.20
2023-05-21T09:24:18.744Z,4.65
2023-05-21T09:28:21.770Z,4.97
2023-05-21T09:32:24.648Z,5.00
2023-05-21T09:36:30.316Z,6.07
2023-05-21T09:40:33.117Z,5.68
2023-05-21T09:44:36.130Z,5.07
2023-05-21T09:48:42.106Z,5.65
2023-05-21T09:52:55.524Z,5.10
2023-05-21T09:56:58.566Z,4.88
2023-05-21T10:01:01.944Z,5.53
2023-05-21T10:05:09.434Z,5.15
2023-05-21T10:09:17.002Z,5.35
2023-05-21T10:13:24.452Z,5.40
2023-05-21T10:17:28.980Z,5.35
2023-05-21T10:21:33.322Z,4.93
2023-05-21T10:25:37.991Z,5.60
2023-05-21T10:29:42.880Z,5.40
2023-05-21T10:33:45.963Z,5.20
2023-05-21T10:37:50.419Z,4.95
2023-05-21T10:42:02.701Z,4.82
2023-05-21T10:46:25.207Z,4.65
2023-05-21T10:50:41.908Z,5.13
2023-05-21T10:55:09.036Z,4.28
2023-05-21T10:59:22.220Z,4.63
2023-05-21T11:03:26.330Z,4.55
2023-05-21T11:07:56.166Z,4.85
2023-05-21T11:12:00.239Z,4.50
2023-05-21T11:16:08.976Z,4.88
2023-05-21T11:20:15.086Z,4.95
2023-05-21T11:24:20.576Z,4.50
2023-05-21T11:28:34.189Z,4.90
2023-05-21T11:33:02.399Z,4.45
2023-05-21T11:37:31.464Z,4.38
2023-05-21T11:41:51.371Z,4.45
2023-05-21T11:45:54.199Z,4.03
2023-05-21T11:50:00.247Z,4.30
2023-05-21T11:54:03.272Z,4.60
2023-05-21T11:58:09.022Z,4.22
2023-05-21T12:02:16.211Z,4.53
2023-05-21T12:06:26.826Z,4.40
2023-05-21T12:10:29.722Z,3.88
2023-05-21T12:14:32.770Z,3.92
2023-05-21T12:18:37.270Z,3.70
2023-05-21T12:22:44.145Z,3.67
2023-05-21T12:26:48.050Z,3.80
2023-05-21T12:30:51.070Z,3.78
2023-05-21T12:34:55.486Z,4.00
2023-05-21T12:38:59.879Z,4.10
2023-05-21T12:43:02.755Z,4.00
2023-05-21T12:47:05.888Z,4.22
2023-05-21T12:51:08.657Z,4.15
2023-05-21T12:55:14.517Z,4.50
2023-05-21T12:59:17.267Z,4.07
2023-05-21T13:03:20.312Z,4.60
2023-05-21T13:07:23.724Z,4.33
2023-05-21T13:11:27.935Z,5.10
2023-05-21T13:15:31.409Z,5.72
2023-05-21T13:19:34.459Z,5.05
2023-05-21T13:23:37.369Z,4.80
2023-05-21T13:27:41.621Z,4.82
2023-05-21T13:31:45.539Z,4.70
2023-05-21T13:35:51.234Z,5.10
2023-05-21T13:39:54.124Z,5.90
2023-05-21T13:43:58.626Z,5.35
2023-05-21T13:48:01.547Z,4.55
2023-05-21T13:52:05.288Z,4.88
2023-05-21T13:56:08.458Z,5.15
2023-05-21T14:00:15.628Z,5.32
2023-05-21T14:04:19.940Z,4.78
2023-05-21T14:08:23.674Z,4.57
2023-05-21T14:12:26.672Z,4.78
2023-05-21T14:16:31.058Z,4.97
2023-05-21T14:20:34.002Z,5.18
2023-05-21T14:24:36.989Z,5.28
2023-05-21T14:28:39.840Z,4.75
2023-05-21T14:32:44.130Z,5.18
2023-05-21T14:36:47.035Z,4.82
2023-05-21T14:40:49.949Z,5.15
2023-05-21T14:44:52.829Z,4.97
2023-05-21T14:48:59.237Z,4.95
2023-05-21T14:53:05.185Z,4.65
2023-05-21T14:57:08.041Z,5.07
2023-05-21T15:01:11.507Z,5.10
2023-05-21T15:05:15.846Z,5.38
2023-05-21T15:09:18.730Z,5.30
2023-05-21T15:13:21.689Z,5.18
2023-05-21T15:17:24.597Z,5.45
2023-05-21T15:21:28.843Z,5.75
2023-05-21T15:25:31.717Z,5.53
2023-05-21T15:29:34.622Z,4.63
2023-05-21T15:33:37.530Z,5.70
2023-05-21T15:37:43.527Z,5.40
2023-05-21T15:41:46.339Z,4.63
2023-05-21T15:45:49.447Z,5.18
2023-05-21T15:49:52.553Z,5.32
2023-05-21T15:53:56.760Z,4.80
2023-05-21T15:58:01.412Z,5.55
2023-05-21T16:02:05.315Z,5.03
2023-05-21T16:06:08.329Z,5.72
2023-05-21T16:10:12.648Z,5.60
2023-05-21T16:14:15.542Z,4.95
2023-05-21T16:18:18.368Z,5.85
2023-05-21T16:22:22.053Z,5.28
2023-05-21T16:26:26.297Z,5.25
2023-05-21T16:30:29.264Z,5.50
2023-05-21T16:34:34.322Z,5.20
2023-05-21T16:38:37.172Z,5.10
2023-05-21T16:42:41.444Z,5.20
2023-05-21T16:46:44.324Z,5.65
2023-05-21T16:50:47.793Z,5.40
2023-05-21T16:54:50.622Z,5.07
2023-05-21T16:58:54.800Z,5.13
2023-05-21T17:02:58.001Z,5.13
2023-05-21T17:07:01.463Z,4.80
2023-05-21T17:11:04.392Z,4.90
2023-05-21T17:15:09.417Z,4.78
2023-05-21T17:19:12.313Z,4.53
2023-05-21T17:23:15.399Z,5.30
2023-05-21T17:27:18.295Z,4.97
2023-05-21T17:31:22.863Z,5.70
2023-05-21T17:35:25.763Z,4.82
2023-05-21T17:39:28.554Z,4.93
2023-05-21T17:43:32.055Z,4.80
2023-05-21T17:47:36.287Z,5.88
2023-05-21T17:51:39.513Z,5.57
2023-05-21T17:55:42.387Z,5.38
2023-05-21T17:59:45.513Z,4.47
2023-05-21T18:03:49.773Z,4.78
2023-05-21T18:07:52.691Z,4.97
2023-05-21T18:11:55.559Z,5.40
2023-05-21T18:15:59.603Z,4.93
2023-05-21T18:20:04.468Z,5.57
2023-05-21T18:24:08.093Z,6.38
2023-05-21T18:28:11.184Z,5.57
2023-05-21T18:32:15.233Z,5.80
2023-05-21T18:36:19.696Z,6.57
2023-05-21T18:40:24.943Z,6.60
2023-05-21T18:44:27.903Z,6.25
2023-05-21T18:48:30.947Z,6.85
2023-05-21T18:52:35.206Z,5.90
2023-05-21T18:56:38.071Z,7.05
2023-05-21T19:00:42.474Z,7.15
2023-05-21T19:04:45.714Z,6.80
2023-05-21T19:08:49.989Z,6.88
2023-05-21T19:12:52.881Z,6.88
2023-05-21T19:16:55.844Z,7.18
2023-05-21T19:21:00.133Z,7.05
2023-05-21T19:25:04.540Z,7.30
2023-05-21T19:29:09.425Z,6.93
2023-05-21T19:33:12.824Z,7.30
2023-05-21T19:37:15.764Z,8.18
2023-05-21T19:41:21.523Z,7.82
2023-05-21T19:45:25.352Z,8.25
2023-05-21T19:49:28.437Z,7.97
2023-05-21T19:53:31.295Z,8.07
2023-05-21T19:57:35.668Z,8.00
2023-05-21T20:01:40.105Z,8.57
2023-05-21T20:05:43.099Z,8.30
2023-05-21T20:09:45.977Z,8.25
2023-05-21T20:13:50.521Z,8.43
2023-05-21T20:17:53.368Z,9.38
2023-05-21T20:21:56.263Z,8.77
2023-05-21T20:25:59.109Z,8.80
2023-05-21T20:30:03.331Z,9.40
2023-05-21T20:34:07.702Z,10.85
2023-05-21T20:38:10.738Z,10.40
2023-05-21T20:42:14.983Z,10.82
2023-05-21T20:46:19.852Z,11.15
2023-05-21T20:50:25.824Z,11.68
2023-05-21T20:54:30.576Z,12.02
2023-05-21T20:58:33.652Z,11.75
2023-05-21T21:02:38.811Z,11.55
2023-05-21T21:06:42.002Z,11.50
2023-05-21T21:10:46.911Z,12.32
2023-05-21T21:14:49.900Z,11.75
2023-05-21T21:18:54.143Z,11.75
2023-05-21T21:22:57.036Z,11.90
2023-05-21T21:26:59.979Z,12.57
2023-05-21T21:31:02.862Z,12.98
2023-05-21T21:35:07.790Z,13.55
2023-05-21T21:39:10.920Z,12.00
2023-05-21T21:43:13.770Z,12.55
2023-05-21T21:47:16.640Z,12.05
2023-05-21T21:51:23.397Z,12.43
2023-05-21T21:55:26.475Z,11.63
2023-05-21T21:59:29.347Z,12.27
2023-05-21T22:03:33.533Z,12.57
2023-05-21T22:07:38.640Z,14.80
2023-05-21T22:11:41.603Z,15.23
2023-05-21T22:15:44.462Z,13.35
2023-05-21T22:19:47.665Z,13.68
2023-05-21T22:23:51.839Z,13.10
2023-05-21T22:27:54.706Z,13.27
2023-05-21T22:31:57.621Z,12.65
2023-05-21T22:36:00.532Z,13.50
2023-05-21T22:40:06.193Z,12.77
2023-05-21T22:44:09.067Z,12.13
2023-05-21T22:48:11.979Z,13.65
2023-05-21T22:52:16.544Z,13.02
2023-05-21T22:56:20.950Z,12.38
2023-05-21T23:00:24.349Z,13.65
2023-05-21T23:04:42.691Z,11.65
2023-05-21T23:08:46.609Z,12.27
2023-05-21T23:12:50.813Z,13.05
2023-05-21T23:16:53.896Z,12.57
2023-05-21T23:20:57.109Z,11.77
2023-05-21T23:25:00.051Z,12.43
2023-05-21T23:29:04.284Z,11.65
2023-05-21T23:33:07.389Z,12.15
2023-05-21T23:37:10.792Z,12.35
2023-05-21T23:41:15.006Z,13.80
2023-05-21T23:45:19.268Z,13.35
2023-05-21T23:49:22.067Z,11.93
2023-05-21T23:53:24.937Z,12.45
2023-05-21T23:57:27.704Z,12.57
